createdAt,value
2018-12-05T00:01:20.406Z,8.90
2018-12-05T00:03:49.295Z,7.10
2018-12-05T00:06:18.277Z,8.27
2018-12-05T00:08:50.880Z,4.37
2018-12-05T00:11:20.312Z,5.77
2018-12-05T00:13:49.318Z,9.67
2018-12-05T00:16:18.319Z,9.60
2018-12-05T00:18:47.647Z,6.30
2018-12-05T00:21:16.941Z,10.20
2018-12-05T00:23:45.931Z,6.73
2018-12-05T00:26:14.928Z,5.70
2018-12-05T00:28:43.892Z,5.00
2018-12-05T00:31:12.866Z,6.07
2018-12-05T00:33:41.836Z,3.73
2018-12-05T00:36:10.852Z,2.43
2018-12-05T00:38:39.829Z,9.10
2018-12-05T00:41:09.275Z,4.83
2018-12-05T00:43:38.245Z,7.13
2018-12-05T00:46:06.925Z,3.33
2018-12-05T00:48:35.485Z,3.10
2018-12-05T00:51:04.665Z,7.93
2018-12-05T00:53:33.331Z,4.77
2018-12-05T00:56:02.238Z,6.63
2018-12-05T00:58:31.216Z,4.90
2018-12-05T01:01:00.221Z,8.47
2018-12-05T01:03:29.298Z,9.43
2018-12-05T01:05:58.389Z,8.20
2018-12-05T01:08:27.117Z,3.37
2018-12-05T01:10:56.008Z,4.10
2018-12-05T01:13:25.110Z,5.10
2018-12-05T01:15:54.077Z,5.73
2018-12-05T01:18:23.097Z,7.57
2018-12-05T01:20:52.048Z,5.43
2018-12-05T01:23:20.756Z,4.80
2018-12-05T01:25:49.636Z,6.63
2018-12-05T01:28:18.612Z,6.23
2018-12-05T01:30:47.578Z,4.67
2018-12-05T01:33:16.551Z,8.47
2018-12-05T01:35:45.535Z,4.60
2018-12-05T01:38:14.551Z,4.90
2018-12-05T01:40:43.544Z,3.90
2018-12-05T01:43:12.235Z,5.00
2018-12-05T01:45:41.107Z,7.13
2018-12-05T01:48:10.128Z,6.07
2018-12-05T01:50:38.783Z,7.73
2018-12-05T01:53:07.685Z,5.23
2018-12-05T01:55:36.632Z,8.00
2018-12-05T01:58:05.620Z,6.23
2018-12-05T02:00:34.665Z,7.47
2018-12-05T02:03:04.395Z,7.37
2018-12-05T02:05:33.107Z,4.60
2018-12-05T02:08:02.024Z,8.20
2018-12-05T04:29:30.581Z,13.67
2018-12-05T04:31:59.564Z,10.03
2018-12-05T04:34:28.561Z,12.27
2018-12-05T04:36:57.509Z,15.23
2018-12-05T04:39:26.520Z,12.50
2018-12-05T04:41:55.704Z,16.23
2018-12-05T04:44:24.719Z,12.40
2018-12-05T04:46:53.837Z,15.70
2018-12-05T04:49:22.846Z,15.47
2018-12-05T04:51:51.837Z,13.47
2018-12-05T04:54:20.829Z,11.80
2018-12-05T04:56:49.807Z,11.87
2018-12-05T04:59:18.487Z,14.37
2018-12-05T05:01:47.358Z,13.53
2018-12-05T05:04:16.417Z,14.63
2018-12-05T05:06:45.397Z,14.70
2018-12-05T05:09:14.417Z,17.73
2018-12-05T05:11:43.428Z,15.70
2018-12-05T05:14:12.403Z,11.07
2018-12-05T05:16:41.832Z,12.40
2018-12-05T05:19:10.826Z,13.53
2018-12-05T05:21:39.795Z,9.73
2018-12-05T05:24:09.446Z,13.67
2018-12-05T05:26:38.416Z,16.70
2018-12-05T05:29:07.397Z,13.40
2018-12-05T05:31:36.344Z,13.20
2018-12-05T05:34:05.536Z,12.73
2018-12-05T05:36:34.514Z,16.67
2018-12-05T05:39:04.734Z,16.17
2018-12-05T05:41:33.385Z,15.73
2018-12-05T05:44:02.306Z,15.07
2018-12-05T05:46:31.327Z,14.23
2018-12-05T05:49:00.323Z,15.30
2018-12-05T05:51:29.292Z,17.50
2018-12-05T05:53:59.042Z,19.20
2018-12-05T05:56:28.860Z,17.30
2018-12-05T05:58:57.552Z,17.07
2018-12-05T06:01:26.721Z,20.73
2018-12-05T06:03:55.726Z,21.43
2018-12-05T06:06:24.729Z,21.63
2018-12-05T06:08:53.779Z,24.47
2018-12-05T06:11:22.587Z,19.53
2018-12-05T06:13:51.484Z,22.53
2018-12-05T06:16:20.171Z,23.67
2018-12-05T06:18:48.782Z,26.03
2018-12-05T06:21:17.683Z,24.27
2018-12-05T06:23:46.404Z,23.87
2018-12-05T06:26:15.292Z,24.17
2018-12-05T06:28:44.266Z,23.40
2018-12-05T06:31:13.277Z,26.03
2018-12-05T06:33:42.257Z,25.90
2018-12-05T06:36:11.464Z,26.73
2018-12-05T06:38:40.466Z,25.10
2018-12-05T06:41:09.458Z,23.53
2018-12-05T06:43:38.448Z,23.40
2018-12-05T06:46:07.453Z,25.23
2018-12-05T06:48:36.409Z,29.80
2018-12-05T06:51:05.410Z,24.70
2018-12-05T06:53:35.651Z,24.97
2018-12-05T06:56:04.710Z,22.47
2018-12-05T06:58:33.903Z,24.27
2018-12-05T07:01:03.037Z,20.77
2018-12-05T07:03:31.981Z,23.40
2018-12-05T07:06:00.680Z,22.63
2018-12-05T07:08:31.075Z,20.57
2018-12-05T07:11:00.066Z,24.07
2018-12-05T07:13:29.172Z,24.97
2018-12-05T07:15:58.503Z,23.80
2018-12-05T07:18:27.500Z,23.13
2018-12-05T07:20:56.639Z,24.57
2018-12-05T07:23:25.737Z,22.40
2018-12-05T07:25:54.718Z,24.50
2018-12-05T07:28:23.680Z,22.13
2018-12-05T07:30:52.497Z,23.77
2018-12-05T07:33:21.405Z,24.83
2018-12-05T07:35:50.474Z,24.60
2018-12-05T07:38:19.839Z,22.93
2018-12-05T07:40:48.979Z,24.43
2018-12-05T07:43:17.763Z,22.73
2018-12-05T07:45:46.907Z,21.93
2018-12-05T07:48:15.934Z,23.87
2018-12-05T07:50:44.945Z,19.10
2018-12-05T07:53:14.315Z,24.90
2018-12-05T07:55:43.027Z,21.63
2018-12-05T07:58:11.991Z,19.17
2018-12-05T08:00:41.064Z,21.57
2018-12-05T08:03:10.117Z,23.07
2018-12-05T08:05:39.235Z,22.57
2018-12-05T08:08:08.109Z,19.87
2018-12-05T08:10:37.262Z,19.27
2018-12-05T08:13:06.405Z,27.17
2018-12-05T08:15:35.590Z,18.20
2018-12-05T08:18:04.869Z,19.30
2018-12-05T08:20:33.656Z,18.90
2018-12-05T08:23:02.636Z,27.80
2018-12-05T08:25:31.760Z,20.00
2018-12-05T08:28:02.189Z,19.90
2018-12-05T08:30:31.285Z,21.17
2018-12-05T08:33:00.368Z,16.43
2018-12-05T08:35:29.392Z,19.03
2018-12-05T08:37:58.384Z,18.10
2018-12-05T08:40:27.450Z,19.33
2018-12-05T08:42:56.662Z,16.33
2018-12-05T08:45:25.736Z,21.10
2018-12-05T08:47:54.752Z,18.90
2018-12-05T08:50:23.856Z,15.40
2018-12-05T08:52:52.872Z,19.93
2018-12-05T08:55:21.916Z,18.03
2018-12-05T08:57:50.945Z,17.17
2018-12-05T09:00:20.057Z,16.87
2018-12-05T09:02:49.050Z,20.43
2018-12-05T09:05:18.188Z,21.97
2018-12-05T09:07:47.717Z,14.20
2018-12-05T09:10:16.867Z,16.90
2018-12-05T09:12:46.023Z,20.40
2018-12-05T09:15:15.026Z,19.20
2018-12-05T09:17:44.044Z,15.60
2018-12-05T09:20:13.056Z,14.50
2018-12-05T09:22:42.087Z,14.10
2018-12-05T09:25:11.114Z,15.63
2018-12-05T09:27:40.125Z,14.10
2018-12-05T09:30:09.375Z,14.70
2018-12-05T09:32:38.361Z,12.20
2018-12-05T09:35:07.533Z,18.33
2018-12-05T09:37:36.560Z,12.23
2018-12-05T09:40:06.042Z,13.30
2018-12-05T09:42:35.036Z,16.87
2018-12-05T09:45:04.641Z,12.03
2018-12-05T09:47:33.345Z,15.10
2018-12-05T09:50:02.529Z,15.63
2018-12-05T09:52:31.572Z,12.20
2018-12-05T09:55:00.558Z,12.03
2018-12-05T09:57:29.558Z,13.77
2018-12-05T09:59:58.536Z,13.47
2018-12-05T10:02:28.140Z,11.17
2018-12-05T10:04:57.156Z,10.13
2018-12-05T10:07:26.209Z,10.67
2018-12-05T10:09:56.553Z,13.30
2018-12-05T10:12:25.556Z,11.30
2018-12-05T10:14:55.324Z,12.87
2018-12-05T10:17:24.357Z,10.30
2018-12-05T10:19:53.020Z,11.33
2018-12-05T10:22:21.943Z,8.93
2018-12-05T10:24:50.904Z,12.63
2018-12-05T10:27:19.573Z,12.40
2018-12-05T10:29:48.581Z,12.70
2018-12-05T10:32:17.820Z,8.60
2018-12-05T10:34:46.785Z,17.93
2018-12-05T10:37:15.497Z,8.60
2018-12-05T10:39:44.367Z,9.47
2018-12-05T10:42:13.170Z,11.10
2018-12-05T10:44:42.097Z,13.63
2018-12-05T10:47:11.410Z,10.30
2018-12-05T10:49:40.336Z,10.10
2018-12-05T10:52:09.385Z,13.57
2018-12-05T10:54:39.060Z,9.47
2018-12-05T10:57:08.360Z,10.70
2018-12-05T10:59:37.500Z,9.20
2018-12-05T11:02:11.848Z,13.23
2018-12-05T11:04:46.158Z,13.87
2018-12-05T11:07:20.573Z,14.10
2018-12-05T11:09:54.793Z,9.73
2018-12-05T11:12:28.857Z,9.63
2018-12-05T11:15:02.885Z,10.20
2018-12-05T11:17:37.170Z,10.07
2018-12-05T11:20:12.188Z,10.53
2018-12-05T11:22:46.477Z,11.07
2018-12-05T11:25:18.909Z,10.27
2018-12-05T11:27:47.591Z,11.03
2018-12-05T11:30:16.498Z,13.27
2018-12-05T11:32:45.488Z,13.77
2018-12-05T11:35:14.489Z,9.03
2018-12-05T11:37:44.690Z,11.07
2018-12-05T11:40:13.351Z,14.77
2018-12-05T11:42:42.266Z,11.50
2018-12-05T11:45:11.633Z,9.40
2018-12-05T11:47:40.629Z,11.40
2018-12-05T11:50:09.922Z,10.83
2018-12-05T11:52:38.897Z,9.07
2018-12-05T11:55:08.026Z,20.60
2018-12-05T11:57:36.773Z,11.67
2018-12-05T12:00:06.860Z,9.97
2018-12-05T12:02:35.897Z,12.70
2018-12-05T12:05:04.990Z,11.30
2018-12-05T12:07:33.571Z,10.53
2018-12-05T12:10:02.311Z,9.67
2018-12-05T12:12:36.484Z,9.67
2018-12-05T12:15:06.577Z,13.70
2018-12-05T12:17:35.751Z,11.53
2018-12-05T12:20:05.213Z,16.20
2018-12-05T12:22:34.270Z,13.33
2018-12-05T12:25:03.162Z,10.93
2018-12-05T12:27:32.029Z,13.63
2018-12-05T12:30:00.725Z,9.97
2018-12-05T12:32:29.632Z,11.87
2018-12-05T12:34:58.419Z,12.23
2018-12-05T12:37:27.298Z,11.63
2018-12-05T12:39:57.735Z,11.67
2018-12-05T12:42:26.719Z,12.87
2018-12-05T12:44:55.948Z,11.07
2018-12-05T12:47:24.761Z,14.83
2018-12-05T12:49:53.784Z,10.90
2018-12-05T12:52:22.745Z,14.57
2018-12-05T12:54:51.993Z,11.37
2018-12-05T12:57:21.048Z,10.73
2018-12-05T12:59:50.084Z,11.87
2018-12-05T13:02:18.765Z,10.73
2018-12-05T13:04:47.364Z,15.13
2018-12-05T13:07:16.273Z,12.47
2018-12-05T13:09:45.845Z,12.10
2018-12-05T13:12:19.872Z,11.80
2018-12-05T13:14:48.829Z,14.33
2018-12-05T13:17:17.829Z,11.47
2018-12-05T13:19:46.807Z,10.47
2018-12-05T13:22:15.801Z,12.20
2018-12-05T13:24:44.818Z,11.13
2018-12-05T13:27:13.501Z,11.67
2018-12-05T13:29:43.570Z,11.63
2018-12-05T13:32:12.548Z,9.70
2018-12-05T13:34:41.512Z,12.07
2018-12-05T13:37:10.585Z,12.40
2018-12-05T13:39:39.580Z,15.77
2018-12-05T13:42:08.592Z,13.20
2018-12-05T13:44:37.553Z,14.90
2018-12-05T13:47:06.561Z,14.10
2018-12-05T13:49:35.571Z,13.43
2018-12-05T13:52:04.747Z,12.80
2018-12-05T13:54:33.533Z,13.87
2018-12-05T13:57:03.051Z,11.53
2018-12-05T13:59:32.049Z,12.10
2018-12-05T14:02:00.736Z,15.40
2018-12-05T14:04:29.633Z,13.53
2018-12-05T14:06:59.057Z,12.10
2018-12-05T14:09:27.656Z,12.33
2018-12-05T14:11:56.552Z,11.70
2018-12-05T14:14:25.525Z,11.77
2018-12-05T14:16:54.517Z,13.23
2018-12-05T14:19:23.441Z,14.07
2018-12-05T14:21:52.440Z,12.75
2018-12-05T14:24:21.428Z,13.30
2018-12-05T14:26:50.444Z,11.23
2018-12-05T14:29:19.113Z,12.67
2018-12-05T14:31:49.216Z,13.83
2018-12-05T14:34:18.255Z,15.20
2018-12-05T14:36:47.426Z,12.00
2018-12-05T14:39:16.262Z,12.33
2018-12-05T14:41:45.355Z,13.37
2018-12-05T14:44:14.345Z,11.33
2018-12-05T14:46:44.181Z,12.47
2018-12-05T14:49:12.860Z,12.10
2018-12-05T14:51:42.477Z,11.10
2018-12-05T14:54:11.432Z,13.60
2018-12-05T14:56:40.454Z,13.27
2018-12-05T14:59:09.457Z,11.27
2018-12-05T15:01:38.414Z,15.90
2018-12-05T15:04:07.360Z,20.63
2018-12-05T15:06:36.051Z,15.47
2018-12-05T15:09:07.011Z,12.13
2018-12-05T15:11:35.987Z,13.00
2018-12-05T15:14:05.096Z,11.67
2018-12-05T15:16:33.768Z,12.93
2018-12-05T15:19:02.646Z,11.37
2018-12-05T15:21:33.160Z,11.57
2018-12-05T15:24:02.139Z,10.90
2018-12-05T15:26:31.107Z,16.37
2018-12-05T15:29:00.052Z,13.13
2018-12-05T15:31:29.065Z,14.40
2018-12-05T15:33:58.101Z,13.93
2018-12-05T15:36:27.207Z,13.83
2018-12-05T15:38:56.257Z,11.20
2018-12-05T15:41:25.006Z,16.27
2018-12-05T15:43:53.940Z,12.43
2018-12-05T15:46:22.961Z,12.97
2018-12-05T15:48:51.948Z,13.60
2018-12-05T15:51:21.192Z,15.77
2018-12-05T15:53:50.172Z,15.63
2018-12-05T15:56:19.780Z,13.43
2018-12-05T15:58:48.762Z,15.13
2018-12-05T16:01:17.722Z,15.70
2018-12-05T16:03:46.696Z,14.50
2018-12-05T16:06:15.670Z,13.47
2018-12-05T16:08:44.716Z,16.13
2018-12-05T16:11:13.711Z,13.87
2018-12-05T16:13:42.833Z,12.13
2018-12-05T16:16:11.504Z,13.97
2018-12-05T16:18:40.093Z,15.33
2018-12-05T16:21:09.272Z,14.63
2018-12-05T16:23:37.960Z,16.83
2018-12-05T16:26:10.651Z,18.17
2018-12-05T16:28:37.552Z,14.77
2018-12-05T16:31:06.513Z,16.43
2018-12-05T16:33:35.490Z,14.73
2018-12-05T16:36:04.492Z,15.77
2018-12-05T16:38:33.204Z,16.80
2018-12-05T16:41:02.052Z,17.80
2018-12-05T16:43:30.738Z,16.43
2018-12-05T16:45:59.611Z,17.90
2018-12-05T16:48:28.604Z,16.13
2018-12-05T16:50:57.636Z,15.50
2018-12-05T16:53:26.627Z,16.80
2018-12-05T16:55:55.615Z,20.07
2018-12-05T16:58:24.632Z,16.13
2018-12-05T17:00:53.619Z,16.93
2018-12-05T17:03:22.276Z,17.27
2018-12-05T17:05:51.186Z,16.67
2018-12-05T17:08:20.184Z,20.47
2018-12-05T17:10:49.176Z,15.90
2018-12-05T17:13:17.820Z,17.73
2018-12-05T17:15:46.739Z,19.33
2018-12-05T17:18:15.773Z,17.00
2018-12-05T17:20:44.744Z,17.33
2018-12-05T17:23:13.703Z,17.87
2018-12-05T17:25:42.496Z,17.80
2018-12-05T17:28:11.387Z,15.17
2018-12-05T17:30:40.475Z,18.90
2018-12-05T17:33:09.437Z,19.20
2018-12-05T17:35:38.668Z,18.07
2018-12-05T17:38:07.618Z,20.10
2018-12-05T17:40:36.298Z,18.63
2018-12-05T17:43:04.844Z,19.90
2018-12-05T17:45:33.441Z,18.63
2018-12-05T17:48:02.408Z,17.93
2018-12-05T17:50:38.049Z,18.17
2018-12-05T17:53:07.006Z,17.53
2018-12-05T17:55:35.988Z,21.43
2018-12-05T17:58:05.010Z,19.70
2018-12-05T18:00:33.952Z,18.70
2018-12-05T18:03:02.904Z,19.47
2018-12-05T18:05:31.875Z,19.73
2018-12-05T18:08:00.867Z,22.73
2018-12-05T18:10:29.900Z,22.03
2018-12-05T18:12:58.885Z,19.93
2018-12-05T18:15:27.985Z,19.33
2018-12-05T18:17:57.043Z,22.00
2018-12-05T18:20:26.407Z,19.40
2018-12-05T18:22:55.349Z,24.43
2018-12-05T18:25:24.328Z,24.20
2018-12-05T18:27:53.537Z,19.87
2018-12-05T18:30:22.234Z,22.03
2018-12-05T18:32:50.829Z,21.93
2018-12-05T18:35:20.950Z,23.33
2018-12-05T18:37:49.923Z,23.23
2018-12-05T18:40:18.901Z,23.53
2018-12-05T18:42:47.584Z,22.40
2018-12-05T18:45:16.460Z,21.03
2018-12-05T18:47:45.473Z,21.63
2018-12-05T18:50:14.481Z,22.67
2018-12-05T18:52:43.652Z,22.40
2018-12-05T18:55:12.280Z,20.07
2018-12-05T18:57:41.173Z,21.67
2018-12-05T19:00:10.544Z,21.73
2018-12-05T19:02:39.444Z,22.37
2018-12-05T19:05:08.765Z,19.03
2018-12-05T19:07:37.474Z,19.67
2018-12-05T19:10:06.204Z,21.30
2018-12-05T19:12:35.252Z,21.27
2018-12-05T19:15:04.788Z,18.73
2018-12-05T19:17:33.459Z,19.53
2018-12-05T19:20:02.493Z,21.57
2018-12-05T19:22:31.507Z,22.10
2018-12-05T19:25:00.161Z,21.77
2018-12-05T19:27:29.060Z,21.60
2018-12-05T19:29:58.253Z,21.53
2018-12-05T19:37:14.724Z,19.77
2018-12-05T19:39:43.676Z,21.97
2018-12-05T19:42:12.762Z,20.13
2018-12-05T19:44:41.415Z,27.00
2018-12-05T19:47:10.196Z,23.20
2018-12-05T19:49:38.756Z,24.13
2018-12-05T19:52:07.408Z,27.20
2018-12-05T19:54:36.027Z,25.33
2018-12-05T19:57:04.642Z,26.70
2018-12-05T19:59:33.238Z,24.83
2018-12-05T20:02:02.155Z,19.70
2018-12-05T20:04:31.100Z,20.90
2018-12-05T20:07:00.117Z,23.63
2018-12-05T20:09:29.090Z,21.07
2018-12-05T20:11:58.077Z,22.63
2018-12-05T20:14:29.423Z,22.00
2018-12-05T20:16:59.108Z,24.60
2018-12-05T20:19:28.087Z,23.23
2018-12-05T20:21:57.119Z,26.60
2018-12-05T20:24:26.093Z,23.40
2018-12-05T20:26:55.245Z,23.70
2018-12-05T20:29:23.939Z,21.13
2018-12-05T20:31:52.869Z,22.07
2018-12-05T20:34:21.841Z,24.90
2018-12-05T20:36:50.507Z,24.03
2018-12-05T20:39:26.042Z,23.57
2018-12-05T20:41:55.548Z,23.87
2018-12-05T20:44:24.253Z,20.93
2018-12-05T20:46:52.827Z,22.57
2018-12-05T20:49:21.741Z,22.57
2018-12-05T20:51:50.749Z,22.97
2018-12-05T20:54:19.768Z,27.07
2018-12-05T20:56:48.935Z,27.27
2018-12-05T20:59:17.912Z,23.17
2018-12-05T21:01:46.992Z,24.47
2018-12-05T21:04:15.974Z,28.43
2018-12-05T21:06:44.933Z,23.10
2018-12-05T21:09:13.921Z,23.87
2018-12-05T21:11:43.052Z,28.23
2018-12-05T21:14:12.036Z,25.30
2018-12-05T21:16:41.020Z,21.83
2018-12-05T21:19:09.782Z,22.10
2018-12-05T21:21:38.800Z,25.20
2018-12-05T21:24:08.322Z,23.53
2018-12-05T21:26:37.576Z,25.07
2018-12-05T21:29:06.808Z,22.30
2018-12-05T21:31:35.758Z,20.77
2018-12-05T21:34:04.420Z,22.93
2018-12-05T21:36:33.338Z,23.17
2018-12-05T21:39:01.885Z,23.67
2018-12-05T21:41:30.553Z,24.50
2018-12-05T21:43:59.134Z,22.20
2018-12-05T21:46:28.050Z,22.63
2018-12-05T21:48:57.024Z,22.37
2018-12-05T21:51:26.113Z,26.17
2018-12-05T21:53:55.060Z,22.40
2018-12-05T21:56:24.056Z,28.83
2018-12-05T21:58:53.031Z,23.17
2018-12-05T22:01:21.732Z,21.93
2018-12-05T22:03:50.330Z,23.40
2018-12-05T22:06:19.303Z,23.30
2018-12-05T22:08:48.268Z,22.83
2018-12-05T22:11:17.294Z,24.27
2018-12-05T22:13:46.265Z,22.67
2018-12-05T22:16:15.316Z,19.63
2018-12-05T22:18:44.271Z,19.80
2018-12-05T22:21:13.247Z,23.53
2018-12-05T22:23:42.236Z,24.63
2018-12-05T22:26:11.246Z,26.93
2018-12-05T22:28:40.239Z,20.60
2018-12-05T22:31:09.253Z,20.97
2018-12-05T22:33:38.306Z,30.83
2018-12-05T22:36:07.525Z,26.83
2018-12-05T22:38:36.181Z,25.13
2018-12-05T22:41:05.109Z,25.57
2018-12-05T22:43:34.078Z,24.43
2018-12-05T22:46:03.055Z,22.30
2018-12-05T22:48:32.065Z,22.67
2018-12-05T22:51:01.093Z,24.23
2018-12-05T22:53:30.110Z,24.10
2018-12-05T22:55:58.885Z,20.60
2018-12-05T22:58:27.775Z,20.20
2018-12-05T23:00:57.469Z,21.37
2018-12-05T23:03:26.406Z,20.33
2018-12-05T23:05:55.149Z,21.33
2018-12-05T23:08:24.956Z,24.43
2018-12-05T23:10:54.028Z,19.73
2018-12-05T23:13:23.002Z,23.37
2018-12-05T23:15:51.984Z,20.70
2018-12-05T23:18:20.687Z,21.27
2018-12-05T23:20:49.572Z,18.87
2018-12-05T23:23:18.789Z,21.93
2018-12-05T23:25:47.489Z,18.47
2018-12-05T23:28:16.425Z,23.93
2018-12-05T23:30:45.396Z,18.77
2018-12-05T23:33:14.588Z,22.33
2018-12-05T23:35:43.553Z,19.37
2018-12-05T23:38:12.600Z,18.87
2018-12-05T23:40:41.575Z,16.20
2018-12-05T23:43:10.624Z,17.93
2018-12-05T23:45:39.743Z,17.73
2018-12-05T23:48:08.719Z,21.43
2018-12-05T23:50:37.695Z,18.40
2018-12-05T23:53:06.597Z,16.97
2018-12-05T23:55:35.838Z,18.30
2018-12-05T23:58:04.504Z,16.67
